Time;durP1;ratioP1;P1;durP2;ratioP2;P2;SDS_P1;SDS_P2;PMS_P1;PMS_P2;Temp;Humidity;BMP_temperature;BMP_pressure;BME280_temperature;BME280_humidity;BME280_pressure;Samples;Min_cycle;Max_cycle;Signal;HPM_P1;HPM_P2
2022/07/08 00:01:33;;;;;;;11.47;2.50;;;15.00;99.90;;;;;;10326978;28;20220;-65
2022/07/08 00:06:34;;;;;;;7.87;2.20;;;14.90;99.90;;;;;;10337264;28;20635;-64
2022/07/08 00:11:34;;;;;;;7.97;2.13;;;14.90;99.90;;;;;;10346740;28;20267;-65
2022/07/08 00:16:40;;;;;;;7.67;2.00;;;14.90;99.90;;;;;;10332262;28;20335;-64
2022/07/08 00:21:43;;;;;;;4.37;1.60;;;14.90;99.90;;;;;;10333629;28;20327;-64
2022/07/08 00:26:44;;;;;;;7.07;2.07;;;14.90;99.90;;;;;;10320136;28;20233;-66
2022/07/08 00:31:48;;;;;;;5.83;1.67;;;14.80;99.90;;;;;;10323429;28;20709;-66
2022/07/08 00:36:48;;;;;;;6.90;2.23;;;14.70;99.90;;;;;;10347398;28;20287;-66
2022/07/08 00:41:50;;;;;;;7.30;2.07;;;14.80;99.90;;;;;;10339363;28;20306;-66
2022/07/08 00:46:50;;;;;;;6.43;1.87;;;14.90;99.90;;;;;;10329625;28;20235;-64
2022/07/08 00:51:51;;;;;;;5.53;2.03;;;15.00;99.80;;;;;;10341598;28;20591;-65
2022/07/08 00:56:54;;;;;;;7.30;2.03;;;15.00;99.70;;;;;;10340608;28;20320;-66
2022/07/08 01:01:55;;;;;;;6.10;1.70;;;15.10;99.50;;;;;;10339447;28;20309;-65
2022/07/08 01:06:55;;;;;;;6.87;1.70;;;15.10;99.60;;;;;;10336405;28;20314;-65
2022/07/08 01:11:56;;;;;;;7.33;2.00;;;15.20;99.40;;;;;;10350905;28;20270;-65
2022/07/08 01:16:57;;;;;;;6.90;1.50;;;15.30;99.00;;;;;;10338505;28;20222;-66
2022/07/08 01:21:57;;;;;;;6.50;2.10;;;15.40;98.70;;;;;;10348856;28;20217;-66
2022/07/08 01:26:58;;;;;;;9.00;1.70;;;15.50;98.60;;;;;;10334679;28;20708;-66
2022/07/08 01:32:00;;;;;;;7.07;2.00;;;15.50;98.60;;;;;;10335098;28;20551;-65
2022/07/08 01:37:02;;;;;;;4.63;1.70;;;15.60;98.60;;;;;;10334488;28;20892;-65
2022/07/08 01:42:03;;;;;;;7.00;2.30;;;15.50;98.60;;;;;;10340028;28;20266;-65
2022/07/08 01:47:04;;;;;;;5.17;2.17;;;15.30;99.00;;;;;;10329343;28;20211;-65
2022/07/08 01:52:12;;;;;;;5.50;1.87;;;15.10;99.80;;;;;;10337385;28;20222;-66
2022/07/08 01:57:15;;;;;;;5.73;1.73;;;14.90;99.90;;;;;;10334703;28;20381;-65
2022/07/08 02:02:18;;;;;;;10.83;2.50;;;14.70;99.90;;;;;;10332237;28;20221;-66
2022/07/08 02:07:19;;;;;;;5.67;1.90;;;14.60;99.90;;;;;;10325151;28;20224;-66
2022/07/08 02:12:19;;;;;;;6.03;1.70;;;14.50;99.90;;;;;;10338417;28;20222;-66
2022/07/08 02:17:22;;;;;;;5.93;1.83;;;14.40;99.90;;;;;;10354547;28;20243;-65
2022/07/08 02:22:23;;;;;;;6.33;1.80;;;14.40;99.90;;;;;;10335123;28;20221;-65
2022/07/08 02:27:25;;;;;;;5.13;1.60;;;14.50;99.90;;;;;;10346524;28;20704;-65
2022/07/08 02:32:26;;;;;;;4.87;1.73;;;14.60;99.90;;;;;;10331198;28;20237;-65
2022/07/08 02:37:26;;;;;;;5.63;1.87;;;14.70;99.90;;;;;;10343051;28;20231;-65
2022/07/08 02:42:27;;;;;;;7.13;1.77;;;14.80;99.90;;;;;;10338253;28;20225;-65
2022/07/08 02:47:28;;;;;;;4.43;1.83;;;14.70;99.90;;;;;;10355728;28;20236;-65
2022/07/08 02:52:28;;;;;;;7.97;1.80;;;14.70;99.90;;;;;;10322510;28;20705;-65
2022/07/08 02:57:29;;;;;;;5.73;1.77;;;14.60;99.90;;;;;;10341635;28;20267;-65
2022/07/08 03:02:30;;;;;;;6.50;1.70;;;14.50;99.90;;;;;;10314219;28;20231;-65
2022/07/08 03:07:30;;;;;;;9.97;2.43;;;14.40;99.90;;;;;;10332846;28;20221;-65
2022/07/08 03:12:31;;;;;;;3.00;1.43;;;14.30;99.90;;;;;;10334460;28;20222;-64
2022/07/08 03:17:31;;;;;;;6.90;1.80;;;14.30;99.90;;;;;;10346036;28;20341;-65
2022/07/08 03:22:33;;;;;;;7.67;1.73;;;14.30;99.90;;;;;;10330639;28;20229;-65
2022/07/08 03:27:34;;;;;;;5.27;1.67;;;14.40;99.90;;;;;;10336272;28;20221;-65
2022/07/08 03:32:35;;;;;;;5.10;1.67;;;14.40;99.90;;;;;;10339226;28;20230;-64
2022/07/08 03:37:42;;;;;;;5.90;1.87;;;14.40;99.90;;;;;;10330515;28;20229;-65
2022/07/08 03:42:43;;;;;;;7.60;1.83;;;14.30;99.90;;;;;;10337927;28;20247;-65
2022/07/08 03:47:51;;;;;;;7.43;1.90;;;14.30;99.90;;;;;;10327927;28;20312;-65
2022/07/08 03:52:51;;;;;;;8.17;2.10;;;14.20;99.90;;;;;;10337024;28;20228;-65
2022/07/08 03:57:53;;;;;;;8.20;2.13;;;14.10;99.90;;;;;;10326039;28;20233;-66
2022/07/08 04:02:53;;;;;;;5.87;1.90;;;14.10;99.90;;;;;;10343301;28;20598;-66
2022/07/08 04:07:54;;;;;;;6.83;2.30;;;14.10;99.90;;;;;;10339183;28;20224;-65
2022/07/08 04:12:55;;;;;;;7.63;2.10;;;14.10;99.90;;;;;;10338189;28;20226;-66
2022/07/08 04:17:56;;;;;;;6.13;2.00;;;14.10;99.90;;;;;;10343697;28;20710;-66
2022/07/08 04:22:57;;;;;;;7.53;2.07;;;14.20;99.90;;;;;;10331997;28;20214;-65
2022/07/08 04:27:57;;;;;;;9.63;2.50;;;14.20;99.90;;;;;;10351732;28;20305;-66
2022/07/08 04:32:58;;;;;;;5.83;2.17;;;14.30;99.90;;;;;;10320682;28;20580;-67
2022/07/08 04:37:59;;;;;;;6.13;2.00;;;14.40;99.90;;;;;;10346897;28;20240;-66
2022/07/08 04:42:59;;;;;;;6.23;2.30;;;14.50;99.90;;;;;;10345821;28;20235;-65
2022/07/08 04:48:00;;;;;;;8.50;2.10;;;14.60;99.90;;;;;;10327645;28;20247;-65
2022/07/08 04:53:00;;;;;;;5.33;2.00;;;14.80;99.90;;;;;;10318612;28;20226;-65
2022/07/08 04:58:03;;;;;;;7.73;2.33;;;15.00;99.90;;;;;;10322053;28;20233;-65
2022/07/08 05:03:03;;;;;;;10.47;3.00;;;15.30;99.90;;;;;;10328374;28;20216;-65
2022/07/08 05:08:04;;;;;;;20.73;4.70;;;15.60;99.90;;;;;;10321938;28;20230;-65
2022/07/08 05:13:07;;;;;;;7.43;2.00;;;15.70;99.90;;;;;;10334540;28;20230;-65
2022/07/08 05:18:07;;;;;;;6.13;1.97;;;16.00;99.90;;;;;;10323598;28;20234;-66
2022/07/08 05:23:08;;;;;;;12.23;2.07;;;16.50;99.90;;;;;;10352632;28;20215;-66
2022/07/08 05:28:09;;;;;;;7.90;2.20;;;16.80;99.90;;;;;;10324544;28;20224;-65
2022/07/08 05:33:09;;;;;;;6.13;1.60;;;17.00;99.70;;;;;;10336863;28;20218;-65
2022/07/08 05:38:10;;;;;;;4.63;2.33;;;17.00;98.60;;;;;;10335201;28;20762;-65
2022/07/08 05:43:11;;;;;;;5.23;2.00;;;17.30;98.20;;;;;;10348770;28;20217;-67
2022/07/08 05:48:11;;;;;;;8.67;1.67;;;19.50;95.20;;;;;;10342034;28;20958;-66
2022/07/08 05:53:15;;;;;;;7.37;2.13;;;22.90;78.40;;;;;;10359297;28;20315;-67
2022/07/08 05:58:15;;;;;;;7.43;1.63;;;25.90;61.90;;;;;;10351759;28;20236;-68
2022/07/08 06:03:16;;;;;;;5.40;1.77;;;27.30;55.70;;;;;;10356613;28;20267;-67
2022/07/08 06:08:16;;;;;;;4.63;2.20;;;29.00;50.20;;;;;;10341592;28;20214;-66
2022/07/08 06:13:17;;;;;;;5.90;2.10;;;29.20;47.40;;;;;;10339983;28;20224;-66
2022/07/08 06:18:20;;;;;;;8.87;2.00;;;27.00;50.10;;;;;;10351815;28;20235;-66
2022/07/08 06:23:21;;;;;;;7.63;2.10;;;24.70;54.20;;;;;;10346139;28;20229;-66
2022/07/08 06:28:23;;;;;;;6.83;1.60;;;23.70;56.70;;;;;;10354841;28;20469;-66
2022/07/08 06:33:24;;;;;;;5.10;1.50;;;23.10;57.10;;;;;;10325368;28;20258;-67
2022/07/08 06:38:24;;;;;;;3.37;1.63;;;22.80;59.10;;;;;;10346659;28;20326;-67
2022/07/08 06:43:25;;;;;;;6.90;1.60;;;24.30;56.10;;;;;;10345302;28;20235;-66
2022/07/08 06:48:26;;;;;;;4.47;1.37;;;26.10;52.50;;;;;;10316564;28;20221;-66
2022/07/08 06:53:26;;;;;;;4.40;1.30;;;26.40;50.10;;;;;;10324186;28;20235;-66
2022/07/08 06:58:27;;;;;;;2.83;1.40;;;27.10;48.30;;;;;;10338839;28;20631;-67
2022/07/08 07:03:28;;;;;;;4.37;1.27;;;29.40;44.80;;;;;;10341678;28;20733;-68
2022/07/08 07:08:30;;;;;;;4.10;1.80;;;31.90;39.50;;;;;;10344058;28;20217;-68
2022/07/08 07:13:30;;;;;;;4.97;1.30;;;33.50;37.10;;;;;;10312689;28;20226;-67
2022/07/08 07:18:31;;;;;;;5.70;2.00;;;35.00;33.50;;;;;;10329721;28;20267;-67
2022/07/08 07:23:32;;;;;;;4.30;1.20;;;30.90;35.70;;;;;;10346023;28;20213;-67
2022/07/08 07:28:34;;;;;;;4.80;1.47;;;31.60;35.90;;;;;;10337366;28;20218;-67
2022/07/08 07:33:36;;;;;;;3.97;1.40;;;30.10;37.60;;;;;;10334928;28;20781;-67
2022/07/08 07:38:37;;;;;;;6.60;1.77;;;27.90;40.50;;;;;;10335821;28;20538;-66
2022/07/08 07:43:38;;;;;;;7.23;2.43;;;29.10;39.10;;;;;;10330235;28;20212;-66
2022/07/08 07:48:39;;;;;;;5.40;1.53;;;28.00;39.60;;;;;;10345259;28;20280;-66
2022/07/08 07:53:41;;;;;;;6.40;1.90;;;27.50;40.80;;;;;;10336094;28;20272;-67
2022/07/08 07:58:42;;;;;;;2.23;1.20;;;26.00;44.00;;;;;;10332559;28;20233;-67
2022/07/08 08:03:43;;;;;;;3.60;1.30;;;25.20;45.60;;;;;;10328171;28;20218;-66
2022/07/08 08:08:44;;;;;;;41.17;4.37;;;24.90;47.00;;;;;;10337940;28;20782;-67
2022/07/08 08:13:44;;;;;;;4.80;1.63;;;25.00;46.70;;;;;;10334742;28;20224;-66
2022/07/08 08:18:45;;;;;;;5.17;1.60;;;25.10;46.40;;;;;;10347388;28;20234;-67
2022/07/08 08:23:46;;;;;;;7.10;1.93;;;25.20;46.00;;;;;;10350670;28;20212;-67
2022/07/08 08:28:47;;;;;;;7.63;2.00;;;27.50;43.50;;;;;;10337576;28;20218;-67
2022/07/08 08:33:47;;;;;;;9.73;1.90;;;30.90;36.70;;;;;;10339721;28;20218;-68
2022/07/08 08:38:50;;;;;;;4.03;1.20;;;30.60;36.70;;;;;;10332854;28;20308;-68
2022/07/08 08:43:50;;;;;;;5.67;2.00;;;32.40;36.00;;;;;;10320616;28;20240;-69
2022/07/08 08:48:57;;;;;;;7.10;1.80;;;32.60;33.30;;;;;;10339176;28;20229;-68
2022/07/08 08:53:58;;;;;;;4.00;1.40;;;32.00;33.20;;;;;;10331943;28;20222;-66
2022/07/08 08:59:00;;;;;;;5.27;1.87;;;32.70;32.40;;;;;;10335358;28;20597;-68
2022/07/08 09:04:02;;;;;;;4.80;1.43;;;33.60;32.40;;;;;;10310703;28;20226;-68
2022/07/08 09:09:03;;;;;;;6.10;1.57;;;34.70;31.20;;;;;;10327995;28;20210;-67
2022/07/08 09:14:18;;;;;;;5.10;1.67;;;31.90;34.00;;;;;;10345283;28;20294;-66
2022/07/08 09:19:24;;;;;;;7.43;1.90;;;30.50;36.90;;;;;;10332983;28;20253;-66
2022/07/08 09:24:27;;;;;;;4.17;1.60;;;33.60;33.50;;;;;;10338239;28;20316;-68
2022/07/08 09:29:30;;;;;;;2.80;1.40;;;35.80;29.40;;;;;;10329135;28;20480;-67
2022/07/08 09:34:35;;;;;;;8.53;2.20;;;35.90;29.70;;;;;;10315416;28;20334;-68
2022/07/08 09:39:36;;;;;;;4.23;1.60;;;36.40;30.00;;;;;;10333477;28;20258;-67
2022/07/08 09:44:37;;;;;;;4.40;1.97;;;37.50;28.10;;;;;;10332722;28;20297;-71
2022/07/08 09:49:46;;;;;;;6.70;1.87;;;39.20;26.90;;;;;;10329156;28;20218;-70
2022/07/08 09:55:02;;;;;;;4.83;1.80;;;39.10;26.40;;;;;;10335652;28;20724;-71
2022/07/08 10:00:06;;;;;;;5.93;2.27;;;38.10;27.20;;;;;;10308874;28;20236;-69
2022/07/08 10:05:07;;;;;;;5.23;1.70;;;37.20;27.70;;;;;;10336103;28;20268;-68
2022/07/08 10:10:10;;;;;;;5.93;2.33;;;36.60;28.60;;;;;;10335518;28;20273;-69
2022/07/08 10:15:12;;;;;;;5.90;1.87;;;38.10;27.60;;;;;;10335515;28;20186;-70
2022/07/08 10:20:18;;;;;;;6.27;1.93;;;38.60;26.60;;;;;;10348821;28;20228;-69
2022/07/08 10:25:20;;;;;;;5.40;1.67;;;38.10;27.20;;;;;;10334587;28;20253;-69
2022/07/08 10:30:21;;;;;;;5.50;1.70;;;39.30;26.80;;;;;;10347745;28;20186;-67
2022/07/08 10:35:22;;;;;;;5.37;1.90;;;39.10;26.20;;;;;;10333545;28;20182;-69
2022/07/08 10:40:38;;;;;;;5.03;1.80;;;38.60;25.80;;;;;;10325575;28;20551;-68
2022/07/08 10:46:15;;;;;;;4.07;1.63;;;36.10;28.00;;;;;;10327992;28;20267;-69
2022/07/08 10:51:20;;;;;;;6.37;1.97;;;37.80;27.50;;;;;;10336861;28;20214;-70
2022/07/08 10:56:48;;;;;;;5.53;1.97;;;39.10;26.60;;;;;;10332793;28;20321;-68
2022/07/08 11:01:56;;;;;;;6.13;2.00;;;39.40;25.60;;;;;;10332834;28;20380;-69
2022/07/08 11:07:20;;;;;;;4.53;1.57;;;39.30;25.90;;;;;;10330407;28;20218;-69
2022/07/08 11:12:27;;;;;;;5.87;2.07;;;39.10;26.40;;;;;;10319013;28;20225;-68
2022/07/08 11:17:31;;;;;;;4.87;1.60;;;38.30;26.60;;;;;;10331100;28;20260;-68
2022/07/08 11:22:37;;;;;;;3.87;1.87;;;37.90;27.50;;;;;;10346643;28;20232;-67
2022/07/08 11:27:38;;;;;;;7.97;2.00;;;38.50;27.10;;;;;;10337541;28;20879;-68
2022/07/08 11:32:40;;;;;;;6.23;2.00;;;39.00;26.10;;;;;;10346373;28;20225;-69
2022/07/08 11:37:41;;;;;;;6.80;1.90;;;37.00;27.70;;;;;;10336870;28;20247;-68
2022/07/08 11:42:42;;;;;;;4.23;1.50;;;37.00;27.50;;;;;;10344900;28;20221;-67
2022/07/08 11:47:43;;;;;;;5.47;2.03;;;34.10;29.40;;;;;;10336180;28;20317;-67
2022/07/08 11:52:43;;;;;;;3.60;1.60;;;30.40;34.10;;;;;;10349415;28;20648;-67
2022/07/08 11:57:44;;;;;;;5.17;1.63;;;28.80;37.50;;;;;;10343899;28;20236;-68
2022/07/08 12:02:45;;;;;;;7.53;2.50;;;27.40;40.00;;;;;;10328160;28;20226;-68
2022/07/08 12:07:46;;;;;;;8.23;1.73;;;26.80;42.20;;;;;;10345554;28;20245;-68
2022/07/08 12:12:57;;;;;;;5.27;1.53;;;26.50;42.90;;;;;;10332405;28;20334;-68
2022/07/08 12:17:58;;;;;;;4.33;1.50;;;26.10;43.20;;;;;;10339101;28;20232;-67
2022/07/08 12:22:58;;;;;;;8.73;1.37;;;26.00;43.00;;;;;;10343045;28;20268;-69
2022/07/08 12:28:03;;;;;;;4.90;1.40;;;25.70;43.00;;;;;;10337645;28;20712;-69
2022/07/08 12:33:04;;;;;;;5.53;1.63;;;25.60;42.30;;;;;;10328757;28;20598;-68
2022/07/08 12:38:07;;;;;;;6.20;1.47;;;25.20;43.60;;;;;;10345119;28;20643;-69
2022/07/08 12:43:10;;;;;;;6.10;1.50;;;24.70;44.50;;;;;;10333645;28;20217;-68
2022/07/08 12:48:11;;;;;;;5.17;1.57;;;24.50;46.20;;;;;;10335238;28;20646;-68
2022/07/08 12:53:11;;;;;;;4.10;1.50;;;24.80;45.00;;;;;;10356875;28;20232;-68
2022/07/08 12:58:12;;;;;;;5.27;1.50;;;24.80;44.90;;;;;;10356049;28;20233;-68
2022/07/08 13:03:14;;;;;;;4.97;1.50;;;24.80;44.40;;;;;;10322604;28;20225;-66
2022/07/08 13:08:14;;;;;;;4.70;1.50;;;24.50;45.20;;;;;;10353520;28;20233;-67
2022/07/08 13:13:15;;;;;;;6.70;1.57;;;24.40;45.90;;;;;;10325083;28;20232;-67
2022/07/08 13:18:15;;;;;;;5.00;1.80;;;24.50;45.40;;;;;;10339105;28;20222;-68
2022/07/08 13:23:16;;;;;;;5.00;1.90;;;24.80;45.30;;;;;;10350762;28;20237;-68
2022/07/08 13:28:17;;;;;;;7.07;1.70;;;24.90;44.80;;;;;;10336556;28;20318;-68
2022/07/08 13:33:17;;;;;;;8.53;2.07;;;24.60;45.60;;;;;;10345699;28;20232;-66
2022/07/08 13:38:18;;;;;;;6.20;1.50;;;24.70;45.60;;;;;;10352496;28;20375;-66
2022/07/08 13:43:19;;;;;;;7.00;1.80;;;24.70;45.40;;;;;;10345216;28;20225;-67
2022/07/08 13:48:20;;;;;;;4.30;1.50;;;24.70;45.40;;;;;;10344658;28;20630;-66
2022/07/08 13:53:20;;;;;;;3.33;1.40;;;24.80;46.10;;;;;;10346921;28;20281;-66
2022/07/08 13:58:21;;;;;;;5.17;1.97;;;25.00;46.00;;;;;;10342358;28;20226;-67
2022/07/08 14:03:24;;;;;;;4.00;1.43;;;25.00;45.80;;;;;;10343657;28;20292;-67
2022/07/08 14:08:24;;;;;;;5.23;1.50;;;25.00;45.90;;;;;;10341754;28;20222;-67
2022/07/08 14:13:25;;;;;;;5.70;1.70;;;25.20;45.40;;;;;;10347196;28;20705;-67
2022/07/08 14:18:26;;;;;;;5.97;1.70;;;25.20;45.50;;;;;;10349300;28;20228;-67
2022/07/08 14:23:27;;;;;;;5.00;1.57;;;25.20;45.60;;;;;;10348501;28;20222;-66
2022/07/08 14:28:27;;;;;;;5.17;1.50;;;25.00;45.70;;;;;;10330548;28;20226;-67
2022/07/08 14:33:28;;;;;;;5.13;1.83;;;24.90;46.00;;;;;;10355408;28;20346;-67
2022/07/08 14:38:29;;;;;;;6.47;1.90;;;24.90;46.60;;;;;;10341541;28;20236;-67
2022/07/08 14:43:31;;;;;;;6.53;1.90;;;25.00;46.40;;;;;;10355689;28;20706;-68
2022/07/08 14:48:31;;;;;;;6.57;1.83;;;25.20;46.30;;;;;;10338697;28;20219;-69
2022/07/08 14:53:32;;;;;;;12.00;2.33;;;25.20;46.40;;;;;;10334102;28;20221;-68
2022/07/08 14:58:33;;;;;;;5.00;1.50;;;25.10;46.40;;;;;;10360487;28;20259;-67
2022/07/08 15:03:34;;;;;;;7.17;1.50;;;25.20;46.60;;;;;;10338044;28;20230;-67
2022/07/08 15:08:35;;;;;;;3.83;1.80;;;25.20;46.60;;;;;;10347423;28;21424;-67
2022/07/08 15:13:35;;;;;;;3.10;1.57;;;25.20;46.70;;;;;;10339082;28;20243;-67
2022/07/08 15:18:36;;;;;;;4.00;1.50;;;25.20;46.90;;;;;;10346018;28;20234;-67
2022/07/08 15:23:37;;;;;;;4.40;1.87;;;25.20;47.20;;;;;;10337423;28;20273;-67
2022/07/08 15:28:38;;;;;;;5.93;1.60;;;25.30;47.30;;;;;;10344614;28;20223;-67
2022/07/08 15:33:41;;;;;;;3.70;1.33;;;25.40;47.40;;;;;;10346000;28;20586;-66
2022/07/08 15:38:42;;;;;;;4.03;1.40;;;25.40;47.50;;;;;;10343986;28;20268;-66
2022/07/08 15:43:42;;;;;;;13.23;2.17;;;25.40;47.40;;;;;;10351205;28;20327;-67
2022/07/08 15:48:43;;;;;;;4.03;1.30;;;25.50;47.50;;;;;;10344676;28;20227;-67
2022/07/08 15:53:44;;;;;;;3.50;1.40;;;25.60;46.90;;;;;;10337356;28;20227;-67
2022/07/08 15:58:44;;;;;;;4.10;1.40;;;25.70;46.80;;;;;;10327653;28;20271;-67
2022/07/08 16:03:46;;;;;;;3.80;1.37;;;25.60;47.00;;;;;;10344208;28;20267;-66
2022/07/08 16:08:49;;;;;;;4.40;1.30;;;25.50;47.40;;;;;;10346343;28;20235;-67
2022/07/08 16:13:49;;;;;;;1.77;1.13;;;25.40;48.10;;;;;;10339680;28;20213;-66
2022/07/08 16:18:50;;;;;;;4.07;1.30;;;25.60;48.00;;;;;;10305390;28;20721;-67
2022/07/08 16:23:51;;;;;;;5.93;1.50;;;25.90;47.70;;;;;;10345092;28;20223;-67
2022/07/08 16:28:51;;;;;;;5.77;2.10;;;26.20;47.50;;;;;;10331259;28;20259;-67
2022/07/08 16:33:52;;;;;;;7.87;1.87;;;26.10;47.50;;;;;;10345183;28;20231;-67
2022/07/08 16:38:53;;;;;;;3.13;1.50;;;26.10;47.50;;;;;;10339073;28;20229;-66
2022/07/08 16:43:54;;;;;;;3.47;1.60;;;26.00;47.70;;;;;;10338769;28;20223;-67
2022/07/08 16:48:55;;;;;;;5.77;1.50;;;26.00;48.00;;;;;;10342802;28;20231;-68
2022/07/08 16:53:55;;;;;;;5.63;1.60;;;25.80;48.50;;;;;;10329866;28;20708;-68
2022/07/08 16:58:56;;;;;;;3.73;1.30;;;25.60;48.90;;;;;;10350959;28;20230;-67
2022/07/08 17:03:56;;;;;;;3.00;1.20;;;25.40;49.70;;;;;;10341351;28;20255;-68
2022/07/08 17:08:57;;;;;;;3.97;1.40;;;25.20;49.80;;;;;;10341256;28;20213;-67
2022/07/08 17:13:59;;;;;;;2.97;1.50;;;25.10;49.60;;;;;;10331100;28;20269;-67
2022/07/08 17:19:00;;;;;;;5.40;1.43;;;25.10;50.90;;;;;;10335180;28;20218;-66
2022/07/08 17:24:00;;;;;;;5.30;1.50;;;25.10;51.30;;;;;;10341222;28;20306;-67
2022/07/08 17:34:20;;;;;;;4.73;1.70;;;24.90;52.30;;;;;;10346629;28;20225;-67
2022/07/08 17:39:21;;;;;;;4.17;1.40;;;24.80;53.00;;;;;;10338372;28;20763;-67
2022/07/08 17:44:22;;;;;;;3.83;1.63;;;24.80;53.20;;;;;;10346689;28;20303;-67
2022/07/08 17:49:22;;;;;;;3.37;1.33;;;24.80;53.30;;;;;;10358280;28;20234;-67
2022/07/08 17:54:27;;;;;;;2.80;1.20;;;24.80;53.50;;;;;;10348842;28;20263;-66
2022/07/08 17:59:27;;;;;;;3.07;1.23;;;24.70;53.80;;;;;;10341767;28;20701;-67
2022/07/08 18:04:29;;;;;;;4.10;1.60;;;24.70;54.10;;;;;;10357601;28;20312;-67
2022/07/08 18:09:31;;;;;;;6.20;1.50;;;24.70;54.00;;;;;;10348913;28;20232;-66
2022/07/08 18:14:32;;;;;;;4.53;1.50;;;24.50;54.40;;;;;;10343338;28;20222;-67
2022/07/08 18:19:33;;;;;;;5.13;1.23;;;24.30;55.00;;;;;;10349767;28;20236;-68
2022/07/08 18:24:34;;;;;;;6.13;1.50;;;24.10;55.60;;;;;;10330709;28;20330;-66
2022/07/08 18:29:35;;;;;;;4.23;1.37;;;24.00;56.20;;;;;;10336556;28;20305;-67
2022/07/08 18:34:36;;;;;;;3.50;1.63;;;23.70;57.00;;;;;;10348474;28;20226;-66
2022/07/08 18:39:36;;;;;;;3.07;1.67;;;23.60;57.60;;;;;;10339532;28;20238;-68
2022/07/08 18:44:37;;;;;;;9.83;1.77;;;23.50;58.20;;;;;;10325764;28;20233;-66
2022/07/08 18:49:38;;;;;;;5.03;1.77;;;23.40;58.70;;;;;;10330486;28;20281;-67
2022/07/08 18:54:39;;;;;;;4.83;1.60;;;23.20;58.90;;;;;;10345213;28;20224;-67
2022/07/08 18:59:39;;;;;;;4.93;1.70;;;23.10;59.40;;;;;;10338808;28;20702;-66
2022/07/08 19:04:40;;;;;;;2.23;1.20;;;22.90;59.90;;;;;;10359318;28;20657;-67
2022/07/08 19:09:41;;;;;;;7.13;1.43;;;22.80;60.70;;;;;;10335952;28;20631;-67
2022/07/08 19:14:42;;;;;;;7.60;1.40;;;22.70;61.50;;;;;;10341909;28;20305;-67
2022/07/08 19:19:43;;;;;;;4.20;1.60;;;22.50;62.50;;;;;;10350247;28;20221;-67
2022/07/08 19:24:44;;;;;;;5.13;1.40;;;22.40;63.40;;;;;;10327360;28;20222;-67
2022/07/08 19:29:44;;;;;;;5.53;1.23;;;22.30;64.30;;;;;;10346524;28;20253;-67
2022/07/08 19:34:46;;;;;;;2.37;1.30;;;22.10;65.20;;;;;;10343004;28;20274;-67
2022/07/08 19:39:47;;;;;;;3.40;1.50;;;21.90;65.90;;;;;;10346898;28;20240;-67
2022/07/08 19:44:49;;;;;;;4.37;1.57;;;21.80;66.90;;;;;;10352071;28;20231;-67
2022/07/08 19:49:49;;;;;;;4.87;2.10;;;21.60;67.60;;;;;;10336894;28;20261;-66
2022/07/08 19:54:50;;;;;;;3.00;1.40;;;21.60;68.50;;;;;;10355734;28;20228;-67
2022/07/08 19:59:50;;;;;;;5.47;1.60;;;21.50;69.20;;;;;;10332552;28;20313;-67
2022/07/08 20:04:52;;;;;;;4.50;1.53;;;21.50;69.70;;;;;;10337339;28;20250;-68
2022/07/08 20:09:53;;;;;;;2.97;1.47;;;21.40;70.10;;;;;;10333685;28;20258;-67
2022/07/08 20:14:54;;;;;;;4.93;1.50;;;21.40;71.20;;;;;;10341583;28;20309;-67
2022/07/08 20:19:54;;;;;;;4.00;1.60;;;21.30;70.80;;;;;;10341905;28;20670;-67
2022/07/08 20:24:55;;;;;;;4.77;1.83;;;21.20;71.40;;;;;;10339447;28;20217;-67
2022/07/08 20:29:59;;;;;;;4.20;1.90;;;21.10;72.40;;;;;;10331694;28;20229;-67
2022/07/08 20:35:00;;;;;;;5.97;2.40;;;21.00;73.20;;;;;;10344679;28;20616;-67
2022/07/08 20:40:01;;;;;;;5.43;1.90;;;21.00;73.90;;;;;;10344766;28;20244;-67
2022/07/08 20:45:02;;;;;;;4.40;1.80;;;21.00;74.20;;;;;;10346460;28;20225;-67
2022/07/08 20:50:04;;;;;;;3.07;1.70;;;21.00;74.80;;;;;;10332672;28;20747;-67
2022/07/08 20:55:11;;;;;;;4.13;1.83;;;21.00;75.20;;;;;;10333519;28;20756;-67
2022/07/08 21:00:14;;;;;;;4.77;2.00;;;21.00;75.50;;;;;;10335112;28;20260;-67
2022/07/08 21:05:15;;;;;;;3.70;1.90;;;20.90;76.10;;;;;;10334143;28;20221;-67
2022/07/08 21:10:15;;;;;;;8.80;2.67;;;20.80;76.80;;;;;;10343563;28;20208;-66
2022/07/08 21:15:18;;;;;;;7.97;2.10;;;20.70;77.50;;;;;;10346922;28;20228;-66
2022/07/08 21:20:18;;;;;;;10.63;1.83;;;20.50;78.40;;;;;;10348621;28;20218;-67
2022/07/08 21:25:19;;;;;;;3.53;1.90;;;20.40;79.80;;;;;;10344431;28;20205;-67
2022/07/08 21:30:23;;;;;;;6.47;1.57;;;20.20;81.00;;;;;;10357426;28;20754;-67
2022/07/08 21:35:23;;;;;;;7.17;2.10;;;20.10;82.00;;;;;;10357145;28;20198;-66
2022/07/08 21:40:24;;;;;;;6.33;2.17;;;20.00;83.20;;;;;;10342212;28;20244;-67
2022/07/08 21:45:25;;;;;;;6.00;1.90;;;19.80;84.50;;;;;;10348483;28;20229;-67
2022/07/08 21:50:25;;;;;;;2.93;1.47;;;19.70;85.60;;;;;;10350225;28;20300;-66
2022/07/08 21:55:29;;;;;;;3.60;1.57;;;19.60;87.00;;;;;;10340259;28;20228;-66
2022/07/08 22:00:29;;;;;;;4.33;1.53;;;19.40;88.90;;;;;;10354929;28;20376;-66
2022/07/08 22:05:30;;;;;;;6.33;2.33;;;19.40;90.20;;;;;;10338927;28;20357;-66
2022/07/08 22:10:31;;;;;;;3.87;1.87;;;19.30;91.20;;;;;;10348139;28;20221;-66
2022/07/08 22:15:32;;;;;;;5.93;1.90;;;19.10;92.20;;;;;;10349138;28;20213;-67
2022/07/08 22:20:33;;;;;;;2.67;1.90;;;19.10;93.50;;;;;;10357334;28;20704;-67
2022/07/08 22:25:34;;;;;;;3.50;1.73;;;18.90;94.70;;;;;;10346298;28;20229;-67
2022/07/08 22:30:34;;;;;;;2.53;1.67;;;18.90;96.10;;;;;;10348602;28;20917;-67
2022/07/08 22:35:35;;;;;;;6.87;1.80;;;18.80;97.30;;;;;;10345082;28;20236;-66
2022/07/08 22:40:36;;;;;;;4.50;1.93;;;18.80;98.40;;;;;;10335056;28;20236;-67
2022/07/08 22:45:38;;;;;;;3.63;1.90;;;18.70;99.50;;;;;;10356653;28;20215;-67
2022/07/08 22:50:39;;;;;;;2.90;1.73;;;18.60;99.90;;;;;;10349014;28;20741;-66
2022/07/08 22:55:40;;;;;;;5.23;2.30;;;18.60;99.90;;;;;;10337668;28;20225;-67
2022/07/08 23:00:41;;;;;;;4.73;2.47;;;18.50;99.90;;;;;;10356397;28;20746;-67
2022/07/08 23:05:42;;;;;;;3.83;2.00;;;18.50;99.90;;;;;;10317880;28;20283;-67
2022/07/08 23:10:42;;;;;;;2.73;1.70;;;18.40;99.90;;;;;;10345481;28;20287;-66
2022/07/08 23:15:43;;;;;;;2.37;1.80;;;18.30;99.90;;;;;;10331611;28;20223;-66
2022/07/08 23:20:44;;;;;;;3.20;1.63;;;18.30;99.90;;;;;;10343191;28;20243;-67
2022/07/08 23:25:44;;;;;;;3.10;1.90;;;18.20;99.90;;;;;;10347741;28;20223;-67
2022/07/08 23:30:45;;;;;;;4.00;2.10;;;18.20;99.90;;;;;;10345258;28;20234;-67
2022/07/08 23:35:45;;;;;;;4.70;2.30;;;18.10;99.90;;;;;;10333654;28;20224;-66
2022/07/08 23:40:46;;;;;;;3.73;2.20;;;18.10;99.90;;;;;;10341356;28;20231;-67
2022/07/08 23:45:47;;;;;;;3.73;2.20;;;18.00;99.90;;;;;;10327595;28;20232;-66
2022/07/08 23:50:47;;;;;;;4.10;2.10;;;17.90;99.90;;;;;;10338872;28;20718;-66
2022/07/08 23:55:48;;;;;;;3.80;2.00;;;17.80;99.90;;;;;;10337458;28;20224;-66
